Terminal Aerodrome Forecast
Issued by NWS

Home | Current Version | Previous Version | Text Only | Print | Product List | Glossary On
Versions: 1 2 3 4 5 6 7 8 9 10 11 12 13 14 15 16
000
FTUS43 KAPX 251120
TAFPLN
TAF
KPLN 251120Z 2512/2612 14004KT P6SM FEW200
     FM251600 15008KT P6SM SCT140
     FM251700 14008KT P6SM BKN110
     FM260000 13008KT P6SM SHRA OVC080 WS020/17035KT
     FM260300 14009KT P6SM SHRA OVC045 WS020/17035KT
     FM260600 17009KT 5SM SHRA BR OVC015
     FM260900 18007KT 5SM SHRA BR OVC008=

USA.gov is the U.S. government's official web portal to all federal, state and local government web resources and services.